Oxdrift, Canada
Current Conditions -  °F | °C
As of 12:00 AM on Tuesday 21 Oct 2014 (Local Time) from CYHD Reporting Station
Overcast Overcast  
Wind Chill:   Ceiling: 1700
Heat Index:   Visibility: 9mi
Dew Point:   Wind: 7mph
Humidity: 81%   Direction: 130°SE
Pressure: 30.15"   Gusts: NA
Location:  49.82°N, 92.98°W
Report Text: CYHD 210500Z AUTO 13006KT 080V140 9SM OVC017 04/01 A3015 RMK SLP229
Loading
Personal Weather Stations






























Interactive Weather Map
Tropical Storm Tracking
New forecast layout! Learn more

10-Day Weather Forecast

Advertisements
Track Severe Weather on mobile